Time;durP1;ratioP1;P1;durP2;ratioP2;P2;SDS_P1;SDS_P2;PMS_P1;PMS_P2;Temp;Humidity;BMP_temperature;BMP_pressure;BME280_temperature;BME280_humidity;BME280_pressure;Samples;Min_cycle;Max_cycle;Signal;HPM_P1;HPM_P2
2022/04/10 00:02:13;;;;;;;12.13;1.88;;;;;;;5.85;91.54;99564.38;4936038;29;20130;-77
2022/04/10 00:04:38;;;;;;;15.15;2.03;;;;;;;5.95;92.53;99564.03;4935565;29;20042;-77
2022/04/10 00:07:04;;;;;;;13.98;2.20;;;;;;;5.87;92.22;99568.50;4936808;29;20541;-78
2022/04/10 00:09:29;;;;;;;17.15;2.50;;;;;;;5.93;92.12;99576.75;4922515;29;20035;-78
2022/04/10 00:11:54;;;;;;;11.52;1.90;;;;;;;5.81;92.58;99563.94;4936631;29;20039;-78
2022/04/10 00:14:20;;;;;;;10.85;2.20;;;;;;;5.86;91.88;99576.69;4919829;29;20058;-78
2022/04/10 00:16:45;;;;;;;11.40;2.25;;;;;;;5.87;92.39;99573.03;4940134;29;20040;-78
2022/04/10 00:19:16;;;;;;;9.52;1.58;;;;;;;5.83;91.91;99574.44;4938534;29;20052;-78
2022/04/10 00:21:45;;;;;;;11.13;1.90;;;;;;;5.60;92.33;99524.88;4934800;29;20031;-78
2022/04/10 00:24:11;;;;;;;11.70;1.92;;;;;;;5.80;91.33;99564.16;4937578;29;20089;-78
2022/04/10 00:26:36;;;;;;;10.02;2.03;;;;;;;5.83;92.83;99569.13;4934090;29;20031;-78
2022/04/10 00:29:01;;;;;;;11.45;1.45;;;;;;;5.82;91.90;99578.13;4934182;29;20541;-78
2022/04/10 00:31:27;;;;;;;11.75;2.38;;;;;;;5.86;90.72;99595.38;4907558;29;20038;-78
2022/04/10 00:33:52;;;;;;;10.43;1.55;;;;;;;5.86;91.45;99588.22;4936606;29;20032;-78
2022/04/10 00:36:18;;;;;;;9.90;2.00;;;;;;;5.72;90.93;99561.66;4936899;29;20393;-78
2022/04/10 00:38:43;;;;;;;11.88;1.80;;;;;;;5.83;90.32;99593.97;4934926;29;20349;-78
2022/04/10 00:41:08;;;;;;;8.25;1.73;;;;;;;5.81;89.17;99598.66;4935896;29;20044;-78
2022/04/10 00:43:36;;;;;;;9.60;1.90;;;;;;;5.84;89.79;99589.44;4919388;29;20072;-78
2022/04/10 00:46:02;;;;;;;9.77;1.75;;;;;;;5.80;89.85;99585.53;4936255;29;20031;-78
2022/04/10 00:48:28;;;;;;;14.63;2.65;;;;;;;5.81;88.91;99581.81;4934005;29;20433;-78
2022/04/10 00:53:40;;;;;;;18.25;2.50;;;;;;;5.79;91.01;99584.66;4935649;29;20427;-78
2022/04/10 00:56:06;;;;;;;11.18;1.70;;;;;;;5.81;91.57;99601.31;4933909;29;20019;-79
2022/04/10 00:58:32;;;;;;;13.90;1.95;;;;;;;5.70;90.93;99593.06;4936422;29;20053;-78
2022/04/10 01:00:57;;;;;;;11.68;1.92;;;;;;;5.75;90.62;99609.31;4918163;29;20454;-78
2022/04/10 01:03:23;;;;;;;8.52;1.50;;;;;;;5.77;90.16;99610.75;4937016;29;20051;-78
2022/04/10 01:05:48;;;;;;;11.57;1.98;;;;;;;5.78;89.37;99620.41;4902226;29;20119;-78
2022/04/10 01:08:16;;;;;;;15.45;1.80;;;;;;;5.80;89.15;99613.03;4915807;29;20036;-79
2022/04/10 01:10:42;;;;;;;13.00;2.03;;;;;;;5.76;90.14;99613.59;4916912;29;20068;-78
2022/04/10 01:13:08;;;;;;;14.02;2.53;;;;;;;5.73;90.01;99616.66;4931137;29;20028;-79
2022/04/10 01:15:35;;;;;;;13.57;2.35;;;;;;;5.73;90.37;99614.84;4935102;29;20054;-78
2022/04/10 01:18:01;;;;;;;10.90;1.98;;;;;;;5.52;91.14;99598.91;4935951;29;20059;-78
2022/04/10 01:20:27;;;;;;;9.93;1.55;;;;;;;5.71;91.96;99616.88;4934011;29;20134;-78
2022/04/10 01:22:54;;;;;;;13.90;2.13;;;;;;;5.64;92.28;99624.84;4933900;29;20039;-79
2022/04/10 01:25:19;;;;;;;7.25;1.50;;;;;;;5.63;91.04;99628.53;4939073;29;20024;-79
2022/04/10 01:27:44;;;;;;;9.63;1.70;;;;;;;5.63;91.65;99623.22;4920501;29;20040;-78
2022/04/10 01:30:12;;;;;;;12.38;2.10;;;;;;;5.65;90.93;99633.66;4935529;29;20099;-78
2022/04/10 01:32:37;;;;;;;12.68;2.00;;;;;;;5.61;89.66;99627.91;4935307;29;20347;-78
2022/04/10 01:35:04;;;;;;;13.63;2.20;;;;;;;5.66;90.15;99632.66;4936902;29;20094;-78
2022/04/10 01:37:31;;;;;;;8.93;2.13;;;;;;;5.62;89.71;99618.06;4938356;29;20424;-78
2022/04/10 01:39:57;;;;;;;11.23;2.28;;;;;;;5.62;89.37;99640.22;4936157;29;20035;-78
2022/04/10 01:42:22;;;;;;;13.35;2.00;;;;;;;5.61;89.86;99632.41;4925002;29;20329;-78
2022/04/10 01:44:48;;;;;;;15.15;1.58;;;;;;;5.30;89.53;99587.50;4923164;29;20071;-78
2022/04/10 01:47:14;;;;;;;11.32;1.95;;;;;;;5.48;89.05;99611.00;4937449;29;20036;-78
2022/04/10 01:49:39;;;;;;;16.48;2.42;;;;;;;5.62;88.59;99650.06;4938635;29;20402;-78
2022/04/10 01:52:05;;;;;;;13.65;1.98;;;;;;;5.64;89.22;99656.06;4937664;29;20038;-78
2022/04/10 01:54:31;;;;;;;14.32;1.95;;;;;;;5.64;91.42;99653.38;4937781;29;20035;-78
2022/04/10 01:56:56;;;;;;;14.73;2.15;;;;;;;5.60;91.58;99663.63;4936162;29;20031;-78
2022/04/10 01:59:22;;;;;;;15.93;3.05;;;;;;;5.47;92.44;99641.38;4921653;29;20040;-78
2022/04/10 02:01:48;;;;;;;16.95;2.35;;;;;;;5.56;91.83;99667.72;4930811;29;20032;-78
2022/04/10 02:04:14;;;;;;;16.45;2.25;;;;;;;5.56;90.06;99672.19;4929553;29;20045;-78
2022/04/10 02:06:39;;;;;;;10.35;1.50;;;;;;;5.51;90.63;99651.44;4933851;29;20111;-78
2022/04/10 02:09:07;;;;;;;9.52;1.85;;;;;;;5.49;90.08;99657.97;4934486;29;20036;-78
2022/04/10 02:11:33;;;;;;;9.98;1.45;;;;;;;5.43;90.77;99648.94;4933954;29;20111;-78
2022/04/10 02:13:58;;;;;;;14.98;1.77;;;;;;;5.55;90.13;99674.03;4931327;29;20053;-78
2022/04/10 02:16:25;;;;;;;11.02;2.05;;;;;;;5.58;90.60;99681.66;4919577;29;20040;-78
2022/04/10 02:18:51;;;;;;;13.63;1.80;;;;;;;5.54;90.29;99669.72;4934472;29;20054;-78
2022/04/10 02:21:17;;;;;;;13.15;2.10;;;;;;;5.32;90.04;99641.44;4921472;29;20038;-78
2022/04/10 02:23:43;;;;;;;12.32;2.00;;;;;;;5.38;89.37;99654.84;4939297;29;20420;-78
2022/04/10 02:26:10;;;;;;;9.77;1.63;;;;;;;5.48;89.46;99669.69;4958258;28;20370;-78
2022/04/10 02:28:36;;;;;;;12.07;1.65;;;;;;;5.51;89.55;99675.44;4951942;28;20389;-77
2022/04/10 02:31:01;;;;;;;10.25;1.63;;;;;;;5.50;90.58;99679.16;4937416;29;20043;-78
2022/04/10 02:33:27;;;;;;;14.88;2.40;;;;;;;5.35;91.05;99644.56;4938210;29;20099;-78
2022/04/10 02:35:52;;;;;;;16.10;2.10;;;;;;;5.45;91.23;99670.06;4945700;29;20028;-79
2022/04/10 02:38:17;;;;;;;9.07;1.80;;;;;;;5.30;90.54;99643.50;4938373;29;20066;-78
2022/04/10 02:40:43;;;;;;;13.70;2.00;;;;;;;5.36;89.81;99656.03;4956017;28;20090;-78
2022/04/10 02:43:10;;;;;;;11.93;1.70;;;;;;;5.35;90.08;99655.22;4926473;29;20066;-78
2022/04/10 02:45:36;;;;;;;11.10;1.88;;;;;;;5.46;89.83;99685.88;4936451;29;20035;-78
2022/04/10 02:48:02;;;;;;;10.38;1.67;;;;;;;5.44;90.23;99681.78;4937245;29;20403;-78
2022/04/10 02:50:27;;;;;;;11.10;1.73;;;;;;;5.48;90.32;99681.19;4935334;29;20040;-78
2022/04/10 02:52:54;;;;;;;11.65;2.20;;;;;;;5.40;90.19;99671.47;4939759;29;20096;-79
2022/04/10 02:55:20;;;;;;;13.18;1.90;;;;;;;5.43;90.53;99688.94;4940826;29;20525;-78
2022/04/10 02:57:45;;;;;;;9.25;1.70;;;;;;;5.46;89.22;99677.03;4919734;29;20118;-78
2022/04/10 03:00:11;;;;;;;14.07;2.15;;;;;;;5.45;89.55;99691.41;4937216;29;20039;-78
2022/04/10 03:02:41;;;;;;;12.80;1.63;;;;;;;5.41;89.12;99685.63;4935687;29;20020;-78
2022/04/10 03:05:08;;;;;;;12.10;1.65;;;;;;;5.44;89.25;99685.25;4938802;29;20107;-78
2022/04/10 03:07:34;;;;;;;8.85;1.45;;;;;;;5.37;88.46;99692.38;4936449;29;20027;-78
2022/04/10 03:10:00;;;;;;;8.73;1.17;;;;;;;5.08;88.58;99640.84;4937552;29;20055;-78
2022/04/10 03:12:25;;;;;;;12.52;2.00;;;;;;;5.46;88.52;99701.06;4937408;29;20078;-77
2022/04/10 03:14:50;;;;;;;9.15;2.13;;;;;;;5.43;88.76;99699.63;4936549;29;20028;-77
2022/04/10 03:17:16;;;;;;;13.02;1.58;;;;;;;5.45;88.77;99694.91;4938435;29;20028;-78
2022/04/10 03:19:41;;;;;;;12.32;2.17;;;;;;;5.26;88.57;99679.56;4921390;29;20048;-78
2022/04/10 03:22:06;;;;;;;11.88;1.60;;;;;;;5.39;88.28;99695.66;4919614;29;20027;-78
2022/04/10 03:24:32;;;;;;;11.68;1.75;;;;;;;5.39;88.01;99699.16;4936399;29;20074;-78
2022/04/10 03:26:57;;;;;;;10.10;1.95;;;;;;;5.40;87.48;99697.34;4937976;29;20351;-78
2022/04/10 03:29:23;;;;;;;9.40;2.17;;;;;;;5.37;87.38;99700.38;4938194;29;20028;-78
2022/04/10 03:31:48;;;;;;;9.90;1.75;;;;;;;5.27;85.85;99683.88;4935775;29;20070;-78
2022/04/10 03:34:14;;;;;;;8.05;1.58;;;;;;;5.36;86.52;99707.56;4938583;29;20075;-78
2022/04/10 03:36:39;;;;;;;9.25;1.92;;;;;;;5.34;86.44;99704.25;4934562;29;20365;-78
2022/04/10 03:39:04;;;;;;;12.93;1.85;;;;;;;5.23;86.26;99699.44;4922350;29;20031;-78
2022/04/10 03:41:30;;;;;;;8.32;1.40;;;;;;;5.34;85.08;99714.09;4935977;29;20027;-78
2022/04/10 03:43:55;;;;;;;8.25;1.60;;;;;;;5.42;85.45;99727.28;4938969;29;20036;-78
2022/04/10 03:46:20;;;;;;;11.95;1.98;;;;;;;5.37;85.49;99719.06;4941830;29;20059;-78
2022/04/10 03:48:46;;;;;;;8.43;1.55;;;;;;;5.37;85.57;99716.41;4919052;29;20119;-78
2022/04/10 03:51:11;;;;;;;7.80;1.10;;;;;;;5.31;85.55;99738.50;4932177;28;20029;-79
2022/04/10 03:53:37;;;;;;;10.82;1.92;;;;;;;5.21;85.60;99706.00;4928892;29;20027;-78
2022/04/10 03:56:02;;;;;;;13.30;2.00;;;;;;;5.36;85.93;99741.41;4946295;29;20027;-79
2022/04/10 03:58:28;;;;;;;8.90;1.88;;;;;;;5.41;86.54;99739.00;4940887;29;20043;-78
2022/04/10 04:00:53;;;;;;;11.73;1.85;;;;;;;5.18;87.94;99721.34;4939040;29;20031;-78
2022/04/10 04:03:18;;;;;;;9.35;1.40;;;;;;;5.32;88.51;99737.47;4948977;28;20031;-79
2022/04/10 04:05:44;;;;;;;14.07;1.63;;;;;;;5.35;88.59;99751.25;4945422;29;20083;-78
2022/04/10 04:08:09;;;;;;;10.75;1.70;;;;;;;5.31;87.70;99747.31;4937504;29;20036;-78
2022/04/10 04:10:35;;;;;;;10.98;1.67;;;;;;;5.42;88.11;99764.66;4947336;29;20016;-78
2022/04/10 04:13:01;;;;;;;7.90;1.40;;;;;;;5.23;88.93;99749.28;4938872;29;20050;-79
2022/04/10 04:15:26;;;;;;;9.40;2.20;;;;;;;5.29;88.09;99751.19;4948400;29;20020;-78
2022/04/10 04:17:52;;;;;;;10.60;1.75;;;;;;;5.40;88.92;99772.03;4938229;29;20063;-79
2022/04/10 04:20:17;;;;;;;10.98;2.22;;;;;;;5.34;89.89;99752.28;4948717;29;20048;-78
2022/04/10 04:22:43;;;;;;;14.77;1.80;;;;;;;5.42;89.70;99769.97;4937155;29;20119;-79
2022/04/10 04:25:08;;;;;;;8.50;1.88;;;;;;;5.37;89.66;99767.09;4931832;29;20051;-78
2022/04/10 04:27:34;;;;;;;12.45;2.50;;;;;;;5.37;89.12;99767.91;4940750;29;20107;-79
2022/04/10 04:30:01;;;;;;;6.70;1.38;;;;;;;5.56;89.38;99784.25;4936626;29;20036;-78
2022/04/10 04:32:26;;;;;;;13.65;1.65;;;;;;;5.74;88.31;99786.50;4932519;29;20055;-78
2022/04/10 04:34:52;;;;;;;9.20;1.48;;;;;;;5.84;87.70;99766.44;4942174;29;20351;-78
2022/04/10 04:37:17;;;;;;;12.77;1.95;;;;;;;6.16;86.09;99790.97;4940360;29;20030;-78
2022/04/10 04:39:42;;;;;;;9.73;1.95;;;;;;;6.21;85.35;99796.53;4940896;29;20055;-79
2022/04/10 04:42:08;;;;;;;10.82;1.50;;;;;;;6.12;83.78;99749.63;4936883;29;20097;-78
2022/04/10 04:44:33;;;;;;;8.18;1.42;;;;;;;6.64;83.03;99803.56;4934597;29;20402;-78
2022/04/10 04:46:59;;;;;;;13.82;2.08;;;;;;;6.61;81.81;99788.75;4925275;29;20139;-78
2022/04/10 04:49:26;;;;;;;12.60;1.45;;;;;;;6.68;81.24;99788.78;4923739;29;20048;-78
2022/04/10 04:51:51;;;;;;;9.82;1.45;;;;;;;6.72;80.18;99793.53;4928875;29;20031;-78
2022/04/10 04:54:17;;;;;;;8.13;1.30;;;;;;;7.07;78.26;99813.00;4928314;29;20358;-78
2022/04/10 04:56:42;;;;;;;6.25;1.45;;;;;;;6.88;78.16;99800.38;4917924;29;20059;-78
2022/04/10 04:59:07;;;;;;;16.92;2.22;;;;;;;7.30;76.53;99815.31;4923862;29;20028;-78
2022/04/10 05:01:33;;;;;;;9.68;1.85;;;;;;;7.10;76.91;99835.03;4933648;29;20031;-78
2022/04/10 05:03:58;;;;;;;6.85;1.58;;;;;;;6.92;78.31;99840.91;4939100;29;20054;-78
2022/04/10 05:06:25;;;;;;;8.02;1.00;;;;;;;6.82;78.90;99843.94;4935910;29;20642;-78
2022/04/10 05:08:51;;;;;;;10.23;1.52;;;;;;;6.51;80.65;99850.56;4936982;29;20823;-78
2022/04/10 05:11:16;;;;;;;7.03;1.58;;;;;;;6.11;81.94;99826.25;4913051;29;20042;-78
2022/04/10 05:13:42;;;;;;;11.27;1.88;;;;;;;6.18;82.07;99862.88;4944706;29;20060;-78
2022/04/10 05:16:08;;;;;;;10.18;1.70;;;;;;;6.04;82.54;99859.28;4945231;29;20031;-78
2022/04/10 05:18:34;;;;;;;10.50;1.70;;;;;;;6.05;82.54;99872.41;4942044;29;20115;-77
2022/04/10 05:20:59;;;;;;;12.10;2.03;;;;;;;5.86;80.96;99799.13;4935608;29;20078;-78
2022/04/10 05:23:25;;;;;;;7.55;1.35;;;;;;;6.40;79.12;99829.75;4939959;29;20493;-78
2022/04/10 05:25:53;;;;;;;12.13;1.67;;;;;;;7.18;75.55;99859.75;4936776;29;20036;-78
2022/04/10 05:28:18;;;;;;;6.95;1.40;;;;;;;7.65;73.70;99876.78;4936903;29;20019;-78
2022/04/10 05:30:44;;;;;;;12.60;1.40;;;;;;;7.65;72.93;99873.25;4939352;29;20046;-78
2022/04/10 05:33:10;;;;;;;12.68;1.90;;;;;;;7.65;72.74;99866.06;4922040;29;20035;-78
2022/04/10 05:35:36;;;;;;;11.05;1.27;;;;;;;8.05;71.04;99895.59;4938021;29;20063;-78
2022/04/10 05:38:02;;;;;;;10.07;1.55;;;;;;;7.55;73.80;99895.09;4940071;29;20066;-77
2022/04/10 05:40:27;;;;;;;12.05;1.88;;;;;;;6.82;78.04;99900.09;4938908;29;20023;-78
2022/04/10 05:42:53;;;;;;;13.45;2.05;;;;;;;6.59;79.72;99913.75;4936444;29;20410;-77
2022/04/10 05:45:18;;;;;;;12.05;2.47;;;;;;;6.33;80.29;99871.63;4938818;29;20042;-77
2022/04/10 05:47:44;;;;;;;15.93;2.20;;;;;;;6.42;80.49;99891.00;4938074;29;20071;-78
2022/04/10 05:50:11;;;;;;;11.73;1.77;;;;;;;6.42;80.86;99891.81;4904569;29;20028;-79
2022/04/10 05:52:41;;;;;;;10.60;2.17;;;;;;;6.43;81.38;99912.19;4932308;29;20039;-78
2022/04/10 05:55:08;;;;;;;9.40;1.60;;;;;;;6.43;80.28;99914.03;4923785;29;20533;-78
2022/04/10 05:57:34;;;;;;;12.02;1.80;;;;;;;6.40;80.79;99906.41;4938069;29;20182;-78
2022/04/10 06:00:00;;;;;;;8.25;1.45;;;;;;;6.29;79.79;99892.56;4939311;29;20039;-78
2022/04/10 06:02:26;;;;;;;10.75;1.92;;;;;;;6.54;79.20;99919.66;4937508;29;20023;-78
2022/04/10 06:04:51;;;;;;;8.88;1.75;;;;;;;6.54;79.09;99917.00;4946834;29;20123;-78
2022/04/10 06:07:17;;;;;;;9.00;1.60;;;;;;;6.49;79.32;99930.13;4937990;29;20054;-79
2022/04/10 06:09:42;;;;;;;10.38;1.83;;;;;;;6.42;78.02;99910.53;4938609;29;20059;-78
2022/04/10 06:12:08;;;;;;;8.82;1.70;;;;;;;6.58;78.13;99931.63;4938099;29;20042;-78
2022/04/10 06:14:34;;;;;;;13.13;1.85;;;;;;;6.64;78.57;99938.03;4934176;29;20036;-79
2022/04/10 06:16:59;;;;;;;20.75;2.35;;;;;;;6.55;78.28;99933.84;4937006;29;20103;-81
2022/04/10 06:19:25;;;;;;;10.30;1.67;;;;;;;6.62;78.38;99945.41;4921475;29;20052;-79
2022/04/10 06:21:50;;;;;;;10.25;1.60;;;;;;;6.57;78.58;99954.03;4934435;29;20455;-79
2022/04/10 06:24:15;;;;;;;13.27;2.10;;;;;;;6.64;78.33;99945.22;4922287;29;20032;-80
2022/04/10 06:26:43;;;;;;;14.30;1.92;;;;;;;6.77;78.65;99950.69;4920254;29;20510;-79
2022/04/10 06:29:08;;;;;;;7.07;1.42;;;;;;;6.67;78.76;99955.53;4915317;29;20374;-79
2022/04/10 06:31:35;;;;;;;13.88;1.90;;;;;;;6.59;76.35;99948.50;4941877;29;20034;-79
2022/04/10 06:34:01;;;;;;;15.15;2.28;;;;;;;6.70;76.72;99960.50;4938915;29;20123;-78
2022/04/10 06:36:26;;;;;;;11.65;1.77;;;;;;;6.79;77.79;99975.38;4928552;29;20123;-78
2022/04/10 06:38:52;;;;;;;8.82;1.52;;;;;;;6.80;78.51;99982.38;4926969;29;20376;-79
2022/04/10 06:41:18;;;;;;;13.27;1.90;;;;;;;6.79;78.55;99970.03;4919054;29;20090;-78
2022/04/10 06:43:43;;;;;;;11.35;1.83;;;;;;;6.81;78.45;99986.69;4936682;29;20031;-79
2022/04/10 06:46:09;;;;;;;14.75;1.95;;;;;;;6.78;76.92;99960.34;4938572;29;20414;-78
2022/04/10 06:48:38;;;;;;;15.32;2.15;;;;;;;6.88;76.95;99987.56;4932125;29;20035;-79
2022/04/10 06:51:04;;;;;;;14.95;2.55;;;;;;;6.76;76.57;99973.09;4921284;29;20024;-78
2022/04/10 06:53:30;;;;;;;14.35;1.67;;;;;;;6.80;76.94;99993.88;4937611;29;20429;-78
2022/04/10 06:55:55;;;;;;;13.27;2.40;;;;;;;6.97;77.01;99989.06;4930377;29;20044;-78
2022/04/10 06:58:22;;;;;;;11.43;2.30;;;;;;;6.78;77.04;99976.38;4931250;29;20055;-79
2022/04/10 07:00:48;;;;;;;9.55;1.80;;;;;;;6.90;75.44;100003.44;4928010;29;20036;-78
2022/04/10 07:03:14;;;;;;;8.80;1.63;;;;;;;6.89;75.37;100005.28;4925165;29;20031;-78
2022/04/10 07:05:40;;;;;;;15.88;2.28;;;;;;;6.97;75.77;100012.31;4937197;29;20052;-77
2022/04/10 07:08:06;;;;;;;20.40;2.10;;;;;;;6.98;75.38;100003.25;4936565;29;20436;-78
2022/04/10 07:10:33;;;;;;;7.18;1.30;;;;;;;6.94;75.01;100007.34;4937494;29;20099;-78
2022/04/10 07:12:58;;;;;;;10.52;1.60;;;;;;;6.77;74.17;100001.47;4940252;29;20473;-79
2022/04/10 07:15:23;;;;;;;10.60;1.70;;;;;;;7.08;75.03;100019.78;4941526;29;20023;-78
2022/04/10 07:17:49;;;;;;;9.70;1.92;;;;;;;7.07;73.96;100023.50;4920700;29;20023;-78
2022/04/10 07:20:14;;;;;;;8.93;1.48;;;;;;;6.88;73.72;100024.19;4936754;29;20191;-78
2022/04/10 07:25:24;;;;;;;13.00;2.40;;;;;;;7.03;74.63;100033.78;4937725;29;20062;-77
2022/04/10 07:27:49;;;;;;;13.15;1.90;;;;;;;7.10;73.81;100038.34;4936487;29;20039;-78
2022/04/10 07:30:14;;;;;;;13.43;1.70;;;;;;;7.06;73.27;100025.34;4935165;29;20066;-78
2022/04/10 07:32:40;;;;;;;9.23;2.13;;;;;;;7.00;71.45;100036.81;4916985;29;20027;-77
2022/04/10 07:35:06;;;;;;;12.68;1.98;;;;;;;7.16;71.75;100048.25;4938654;29;20032;-77
2022/04/10 07:37:32;;;;;;;9.43;1.30;;;;;;;6.92;71.61;100037.00;4934547;29;20028;-77
2022/04/10 07:39:57;;;;;;;9.60;1.48;;;;;;;7.05;71.38;100046.94;4938987;29;20030;-77
2022/04/10 07:42:23;;;;;;;6.78;1.15;;;;;;;7.12;72.34;100044.31;4938986;29;20370;-77
2022/04/10 07:44:48;;;;;;;12.10;1.63;;;;;;;7.21;72.16;100059.19;4936447;29;20039;-77
2022/04/10 07:47:25;;;;;;;14.68;2.28;;;;;;;7.17;72.54;100057.94;4933836;29;20510;-77
2022/04/10 07:49:53;;;;;;;13.63;2.15;;;;;;;6.99;72.36;100032.50;4937076;29;20037;-78
2022/04/10 07:52:18;;;;;;;9.32;1.55;;;;;;;6.88;71.25;100038.38;4933995;29;20028;-77
2022/04/10 07:54:44;;;;;;;5.85;1.50;;;;;;;7.04;71.01;100059.47;4935666;29;20102;-77
2022/04/10 07:57:09;;;;;;;7.55;1.55;;;;;;;7.05;71.09;100058.47;4936189;29;20031;-77
2022/04/10 07:59:34;;;;;;;9.57;1.60;;;;;;;7.12;71.58;100073.72;4934552;29;20107;-77
2022/04/10 08:02:02;;;;;;;8.15;1.90;;;;;;;6.66;70.32;100026.91;4934737;29;20095;-76
2022/04/10 08:04:28;;;;;;;5.85;1.10;;;;;;;6.92;70.15;100057.53;4934062;29;20048;-77
2022/04/10 08:06:53;;;;;;;7.57;1.85;;;;;;;6.95;70.45;100068.66;4930635;29;20404;-76
2022/04/10 08:09:19;;;;;;;9.10;1.77;;;;;;;6.84;69.34;100039.78;4927872;29;20035;-77
2022/04/10 08:11:45;;;;;;;8.73;1.63;;;;;;;7.00;70.21;100082.31;4927786;29;20024;-76
2022/04/10 08:14:10;;;;;;;8.20;1.80;;;;;;;7.01;70.02;100086.63;4925372;29;20068;-76
2022/04/10 08:16:35;;;;;;;13.30;1.80;;;;;;;7.00;70.27;100098.34;4929022;29;20028;-76
2022/04/10 08:19:01;;;;;;;9.73;1.60;;;;;;;7.11;68.83;100093.50;4921817;29;20072;-76
2022/04/10 08:21:26;;;;;;;7.93;1.60;;;;;;;7.06;68.10;100099.44;4932352;29;20027;-77
2022/04/10 08:23:52;;;;;;;7.55;1.60;;;;;;;7.10;68.07;100114.06;4935686;29;20035;-77
2022/04/10 08:26:17;;;;;;;8.32;1.35;;;;;;;7.13;66.75;100112.88;4933417;29;20024;-76
2022/04/10 08:28:42;;;;;;;9.13;1.55;;;;;;;7.09;67.88;100098.22;4937796;29;20410;-76
2022/04/10 08:31:08;;;;;;;12.40;1.77;;;;;;;7.32;68.56;100132.75;4937737;29;20459;-77
2022/04/10 08:33:33;;;;;;;6.82;1.30;;;;;;;7.35;67.53;100129.69;4936789;29;20051;-77
2022/04/10 08:35:58;;;;;;;12.15;1.95;;;;;;;7.41;68.95;100135.09;4931377;29;20032;-76
2022/04/10 08:38:24;;;;;;;9.88;1.48;;;;;;;7.43;68.81;100134.91;4923504;29;20362;-77
2022/04/10 08:40:53;;;;;;;9.98;1.33;;;;;;;7.39;68.55;100139.81;4935200;29;20077;-76
2022/04/10 08:43:19;;;;;;;10.35;1.83;;;;;;;7.37;68.25;100141.84;4933813;29;20020;-76
2022/04/10 08:45:46;;;;;;;7.95;1.10;;;;;;;7.25;67.13;100116.63;4936882;29;20178;-78
2022/04/10 08:48:13;;;;;;;9.13;1.30;;;;;;;7.22;66.20;100133.94;4937258;29;20067;-76
2022/04/10 08:50:40;;;;;;;6.90;1.27;;;;;;;7.32;67.03;100146.13;4936128;29;20059;-76
2022/04/10 08:53:06;;;;;;;4.50;0.82;;;;;;;7.20;66.53;100127.13;4934200;29;20486;-76
2022/04/10 08:55:32;;;;;;;11.63;2.13;;;;;;;7.39;66.90;100161.25;4935202;29;20478;-76
2022/04/10 08:57:57;;;;;;;11.05;2.00;;;;;;;7.34;66.49;100133.41;4935298;29;20055;-77
2022/04/10 09:00:23;;;;;;;8.63;1.20;;;;;;;7.32;65.93;100136.28;4934947;29;20111;-77
2022/04/10 09:02:51;;;;;;;6.68;1.48;;;;;;;7.37;67.90;100131.16;4925422;29;20028;-77
2022/04/10 09:05:18;;;;;;;8.25;1.63;;;;;;;7.40;69.63;100146.81;4915374;29;20067;-76
2022/04/10 09:08:09;;;;;;;14.70;1.75;;;;;;;7.51;68.58;100156.97;4933306;29;20028;-77
2022/04/10 09:10:55;;;;;;;11.75;1.58;;;;;;;7.56;69.06;100161.78;4935156;29;20583;-76
2022/04/10 09:13:28;;;;;;;9.10;1.38;;;;;;;7.51;68.85;100159.66;4933055;29;20027;-76
2022/04/10 09:16:10;;;;;;;7.57;1.30;;;;;;;7.55;68.26;100157.44;4935447;29;20031;-77
2022/04/10 09:18:46;;;;;;;9.40;1.63;;;;;;;7.43;67.22;100161.69;4935729;29;20035;-76
2022/04/10 09:21:12;;;;;;;8.73;1.42;;;;;;;7.40;68.46;100175.44;4934677;29;20573;-76
2022/04/10 09:23:37;;;;;;;9.77;1.60;;;;;;;7.46;68.87;100172.81;4929438;29;20031;-77
2022/04/10 09:26:03;;;;;;;13.32;1.58;;;;;;;7.64;69.08;100185.72;4934315;29;20056;-77
2022/04/10 09:28:46;;;;;;;7.93;1.20;;;;;;;7.24;66.42;100121.16;4919304;29;20397;-77
2022/04/10 09:31:23;;;;;;;5.45;1.25;;;;;;;7.73;67.64;100186.41;4933978;29;20032;-77
2022/04/10 09:33:50;;;;;;;9.52;1.50;;;;;;;7.71;67.38;100180.41;4934316;29;20028;-78
2022/04/10 09:36:27;;;;;;;6.55;1.25;;;;;;;7.62;66.00;100186.94;4934621;29;20027;-76
2022/04/10 09:38:53;;;;;;;8.45;1.83;;;;;;;7.37;65.75;100165.94;4936569;29;20468;-77
2022/04/10 09:41:20;;;;;;;8.73;1.50;;;;;;;7.44;66.19;100182.88;4939346;29;20059;-77
2022/04/10 09:43:45;;;;;;;10.40;2.17;;;;;;;7.52;65.83;100196.13;4939294;29;20362;-78
2022/04/10 09:46:14;;;;;;;8.13;1.50;;;;;;;7.55;66.61;100176.19;4933550;29;20032;-79
2022/04/10 09:48:39;;;;;;;8.63;1.70;;;;;;;7.61;65.32;100169.22;4925198;29;20055;-79
2022/04/10 09:51:05;;;;;;;7.75;1.27;;;;;;;7.55;64.46;100189.56;4934148;29;20131;-78
2022/04/10 09:53:33;;;;;;;7.18;1.15;;;;;;;7.38;63.66;100174.81;4928767;29;20459;-78
2022/04/10 09:56:04;;;;;;;5.57;1.00;;;;;;;7.59;65.11;100200.72;4929106;29;20028;-78
2022/04/10 09:58:31;;;;;;;13.23;2.10;;;;;;;7.59;65.49;100209.56;4928394;29;20385;-78
2022/04/10 10:00:58;;;;;;;10.40;1.60;;;;;;;7.67;66.19;100204.06;4931177;29;20406;-78
2022/04/10 10:03:25;;;;;;;8.13;1.48;;;;;;;7.66;65.09;100172.97;4933235;29;20024;-77
2022/04/10 10:05:54;;;;;;;5.35;1.05;;;;;;;7.62;64.66;100211.03;4928524;29;20032;-78
2022/04/10 10:08:21;;;;;;;6.18;1.20;;;;;;;7.67;64.46;100222.00;4923360;29;20043;-78
2022/04/10 10:10:46;;;;;;;7.97;1.58;;;;;;;7.54;65.60;100226.22;4928378;29;20055;-78
2022/04/10 10:13:13;;;;;;;7.60;1.73;;;;;;;7.63;64.36;100224.22;4939493;29;20024;-78
2022/04/10 10:15:39;;;;;;;5.93;1.73;;;;;;;7.64;65.85;100220.50;4932249;29;20073;-78
2022/04/10 10:18:09;;;;;;;6.90;1.60;;;;;;;7.63;66.30;100210.00;4920196;29;20104;-79
2022/04/10 10:20:36;;;;;;;10.57;1.67;;;;;;;7.81;65.18;100225.59;4929484;29;20600;-79
2022/04/10 10:23:04;;;;;;;7.88;1.48;;;;;;;7.61;64.65;100228.13;4926218;29;20028;-78
2022/04/10 10:25:35;;;;;;;7.53;1.08;;;;;;;7.65;65.14;100229.38;4928301;29;20035;-79
2022/04/10 10:28:03;;;;;;;7.15;1.45;;;;;;;7.74;66.22;100229.03;4919219;29;20024;-79
2022/04/10 10:30:28;;;;;;;9.23;1.90;;;;;;;7.83;65.29;100243.13;4931514;29;20043;-78
2022/04/10 10:33:21;;;;;;;9.15;1.02;;;;;;;7.69;65.50;100247.56;4928627;29;20474;-78
2022/04/10 10:35:56;;;;;;;10.20;1.42;;;;;;;7.78;66.35;100240.19;4925413;29;20434;-78
2022/04/10 10:38:31;;;;;;;10.27;1.88;;;;;;;7.85;66.38;100249.13;4926766;29;20038;-78
2022/04/10 10:41:12;;;;;;;5.78;1.13;;;;;;;7.83;65.98;100251.16;4925364;29;20032;-78
2022/04/10 10:43:38;;;;;;;10.68;2.03;;;;;;;7.70;64.51;100243.03;4924961;29;20082;-79
2022/04/10 10:46:22;;;;;;;6.47;1.35;;;;;;;7.85;65.21;100250.97;4928575;29;20114;-78
2022/04/10 10:48:50;;;;;;;8.38;1.42;;;;;;;8.00;66.67;100254.38;4931610;29;20020;-78
2022/04/10 10:51:15;;;;;;;11.52;1.92;;;;;;;8.11;65.37;100266.38;4927754;29;20134;-78
2022/04/10 10:53:42;;;;;;;9.10;1.50;;;;;;;7.96;63.74;100248.56;4929354;29;20110;-79
2022/04/10 10:56:17;;;;;;;6.03;1.70;;;;;;;7.74;63.59;100201.44;4927833;29;20039;-78
2022/04/10 10:58:43;;;;;;;4.65;1.10;;;;;;;7.95;62.50;100262.19;4926797;29;20030;-78
2022/04/10 11:01:17;;;;;;;5.22;1.80;;;;;;;8.04;64.25;100269.03;4926271;29;20031;-78
2022/04/10 11:04:05;;;;;;;7.85;1.60;;;;;;;8.08;63.43;100274.81;4924008;29;20032;-78
2022/04/10 11:06:45;;;;;;;7.07;1.40;;;;;;;7.81;63.13;100266.59;4927923;29;20028;-79
2022/04/10 11:09:21;;;;;;;10.15;1.60;;;;;;;7.98;64.80;100289.41;4932568;29;20763;-78
2022/04/10 11:11:48;;;;;;;10.02;1.58;;;;;;;7.67;65.64;100254.13;4934492;29;20035;-79
2022/04/10 11:14:38;;;;;;;5.68;1.13;;;;;;;8.07;66.29;100297.28;4914382;29;20066;-78
2022/04/10 11:17:18;;;;;;;8.52;1.85;;;;;;;8.06;66.29;100295.63;4927465;29;20024;-78
2022/04/10 11:19:48;;;;;;;7.75;1.75;;;;;;;7.88;65.93;100261.28;4925725;29;20084;-78
2022/04/10 11:22:29;;;;;;;9.02;2.00;;;;;;;8.11;65.41;100309.25;4938206;29;20434;-79
2022/04/10 11:24:58;;;;;;;11.45;1.85;;;;;;;8.03;65.20;100307.56;4958288;28;20027;-79
2022/04/10 11:27:45;;;;;;;7.55;1.20;;;;;;;8.06;64.04;100298.31;4958917;28;20046;-79
2022/04/10 11:30:25;;;;;;;8.85;1.42;;;;;;;8.25;65.46;100311.03;4950763;29;20065;-78
2022/04/10 11:33:03;;;;;;;13.93;2.00;;;;;;;8.26;64.62;100317.22;4945060;29;20091;-79
2022/04/10 11:35:34;;;;;;;10.25;2.00;;;;;;;8.20;65.35;100326.84;4936418;29;20468;-78
2022/04/10 11:38:05;;;;;;;8.75;1.50;;;;;;;8.31;65.58;100315.63;4937800;29;20063;-79
2022/04/10 11:40:33;;;;;;;4.28;1.08;;;;;;;8.36;65.73;100329.25;4938383;29;20461;-78